Flight Track Log - Related Links

Times and Time Zones

All times are in EDT time to prevent confusion due to time zone crossing. See the WEW1540 flight status page for this flight to view local times or setup timezone preferences in your user account.

Time Position Orientation Groundspeed Altitude Reporting Facility
EDT Latitude Longitude Course Direction KTS MPH feet Rate Location/Type
Fri 07:05:22 PM 51.3167 -109.0000 142° Southeast 150 173 8,800  Level Winnipeg Center
Fri 07:06:22 PM 51.2833 -108.9333 129° Southeast 150 173 9,000 67 Climbing Winnipeg Center
Fri 07:08:22 PM 51.2000 -108.8667 153° Southeast 190 219 9,000  Level Winnipeg Center
Fri 07:09:00 PM 51.1097 -108.6736 142° Southeast  Level Estimated
Fri 07:09:22 PM 51.1500 -108.8000 140° Southeast 190 219 9,000  Level Winnipeg Center
Fri 07:10:00 PM 51.0726 -108.6276 142° Southeast  Level FlightAware Approximate
Fri 07:10:22 PM 51.1000 -108.7500 148° Southeast 190 219 9,000  Level Winnipeg Center
Fri 07:11:22 PM 51.0833 -108.7000 118° Southeast 190 219 9,000  Level Winnipeg Center
Fri 07:12:22 PM 51.0333 -108.6500 148° Southeast 190 219 9,000  Level Winnipeg Center
Fri 07:13:22 PM 50.9833 -108.5833 140° Southeast 190 219 9,000  Level Winnipeg Center
Fri 07:14:22 PM 50.9333 -108.5500 157° South 190 219 9,000  Level Winnipeg Center
Fri 07:15:22 PM 50.9167 -108.5000 118° Southeast 190 219 9,000 474 Level Winnipeg Center
Fri 07:16:16 PM 55.0333 -95.7000 57° Northeast 260 299 9,900  Climbing Winnipeg Center
Fri 07:17:22 PM 50.8167 -108.3833 246° West 190 219 9,000 -429 Descending Winnipeg Center
Fri 07:18:22 PM 50.8000 -108.3333 118° Southeast 190 219 9,000  Level Winnipeg Center
Fri 07:19:22 PM 50.7500 -108.2667 140° Southeast 190 219 9,000  Level Winnipeg Center
Fri 07:20:22 PM 50.7000 -108.2333 157° South 190 219 9,000  Level Winnipeg Center
Fri 07:21:22 PM 50.6500 -108.1667 140° Southeast 190 219 9,000 -50 Level Winnipeg Center
Fri 07:22:22 PM 50.6333 -108.1333 128° Southeast 190 219 8,900 -100 Descending Winnipeg Center
Fri 07:24:00 PM 50.5758 -108.0533 139° Southeast  Level FlightAware Approximate
Fri 07:31:00 PM 50.3209 -107.7273 144° Southeast  Level Estimated
Fri 07:32:00 PM 50.2919 -107.6906 144° Southeast  Level Estimated
Fri 07:33:00 PM 50.2919 -107.6906 144° Southeast  Level Estimated
Fri 07:34:00 PM 50.2919 -107.6906 144° Southeast  Level Estimated
Fri 07:35:00 PM 50.2919 -107.6906 144° Southeast  Level Estimated
Fri 07:36:00 PM 50.2919 -107.6906 144° Southeast  Level Estimated
Fri 07:37:00 PM 50.2919 -107.6906 144° Southeast  Level Estimated
Fri 07:38:00 PM 50.2919 -107.6906 144° Southeast  Level Estimated

Login

Don't have an account? Register now (free) for customized features, flight alerts, and more!